Terminal Aerodrome Forecast
Issued by NWS

Home | Current Version | Previous Version | Text Only | Print | Product List | Glossary On
Versions: 1 2 3 4 5 6 7 8 9 10 11 12
000
FTUS42 KTBW 302337
TAFRSW
TAF
KRSW 302337Z 3100/3124 30006KT P6SM VCSH BKN060
     FM310300 VRB03KT P6SM SCT050
     FM311600 26007KT P6SM SCT050
     FM311900 27009KT P6SM VCTS BKN050CB=

USA.gov is the U.S. government's official web portal to all federal, state and local government web resources and services.